Lacamas, Washington
Current Conditions -  °F | °C
As of 9:15 PM on Monday 20 Oct 2014 (Local Time) from KCLS Reporting Station
NA  
Wind Chill: 57°   Ceiling: NA
Heat Index: 57°   Visibility: 10mi
Dew Point: 55°   Wind: 9mph
Humidity: 94%   Direction: 170°S
Pressure: 29.79"   Gusts: NA
Location:  46.5995°N, 122.665°W
Report Text: KCLS 210415Z AUTO 17008KT 10SM 14/13 A2979 RMK AO2
Loading
Personal Weather Stations






























Interactive Weather Map
Tropical Storm Tracking
New forecast layout! Learn more

10-Day Weather Forecast

Advertisements
Track Severe Weather on mobile